KART/ART METAR and TAF weather

Enter ICAO airport designator
Station Type Date Time Source
KART METAR 2022/06/30 12:56 UTC NOAA

KART 301256Z AUTO 22004KT 10SM CLR 21/15 A3022 RMK AO2 SLP229 T02060150


Station Type Date Time Source
KART Decoded METAR 2022/06/30 12:56 UTC NOAA

WATERTOWN INTERNATIONAL AIRPORT, NY, United States (KART) 43-59N 076-02W 100M
Jun 30, 2022 - 08:56 AM EDT / 2022.06.30 1256 UTC
Wind: from the SW (220 degrees) at 5 MPH (4 KT):0
Visibility: 10 mile(s):0
Sky conditions: clear
Temperature: 69.1 F (20.6 C)
Dew Point: 59.0 F (15.0 C)
Relative Humidity: 70%
Pressure (altimeter): 30.22 in. Hg (1023 hPa)
ob: KART 301256Z AUTO 22004KT 10SM CLR 21/15 A3022 RMK AO2 SLP229 T02060150
cycle: 13

Station Type Date Time Source
KART TAF 2022/06/30 12:22 UTC NOAA

TAF KART 301120Z 3012/0112 17003KT P6SM BKN090
FM301400 23004KT P6SM SCT200
FM010000 17005KT P6SM SCT250
FM010700 19008KT P6SM SCT250
FM011100 20010G16KT P6SM SCT250

Example: see airport list